Time;durP1;ratioP1;P1;durP2;ratioP2;P2;SDS_P1;SDS_P2;PMS_P1;PMS_P2;Temp;Humidity;BMP_temperature;BMP_pressure;BME280_temperature;BME280_humidity;BME280_pressure;Samples;Min_cycle;Max_cycle;Signal;HPM_P1;HPM_P2
2022/09/17 00:02:29;;;;;;;5.32;1.73;;;;;;;;;;4988256;28;20110;-80
2022/09/17 00:04:54;;;;;;;7.90;1.42;;;;;;;;;;4957860;28;20054;-80
2022/09/17 00:07:20;;;;;;;8.60;1.65;;;;;;;;;;4968145;28;20483;-80
2022/09/17 00:09:45;;;;;;;5.90;1.80;;;;;;;;;;4973245;28;20026;-80
2022/09/17 00:12:12;;;;;;;7.38;1.48;;;;;;;;;;4987898;28;20405;-80
2022/09/17 00:14:37;;;;;;;5.80;1.35;;;;;;;;;;4974742;28;20427;-80
2022/09/17 00:17:02;;;;;;;5.63;1.60;;;;;;;;;;4975142;28;20039;-80
2022/09/17 00:19:28;;;;;;;6.93;1.67;;;;;;;;;;4973326;28;20052;-80
2022/09/17 00:21:53;;;;;;;5.85;1.40;;;;;;;;;;4989810;28;20033;-80
2022/09/17 00:24:22;;;;;;;8.57;1.98;;;;;;;;;;4973761;28;20038;-80
2022/09/17 00:26:48;;;;;;;7.55;1.50;;;;;;;;;;4981483;28;20080;-80
2022/09/17 00:29:14;;;;;;;4.28;1.45;;;;;;;;;;4976054;28;20481;-80
2022/09/17 00:31:39;;;;;;;4.45;1.42;;;;;;;;;;4973422;28;20139;-80
2022/09/17 00:34:05;;;;;;;5.25;1.70;;;;;;;;;;4992737;28;20069;-80
2022/09/17 00:36:34;;;;;;;4.22;1.30;;;;;;;;;;4972539;28;20392;-80
2022/09/17 00:38:59;;;;;;;3.88;1.30;;;;;;;;;;4970765;28;20417;-79
2022/09/17 00:41:27;;;;;;;6.40;1.52;;;;;;;;;;4986112;28;20042;-81
2022/09/17 00:43:58;;;;;;;7.90;1.63;;;;;;;;;;4976589;28;20742;-80
2022/09/17 00:46:41;;;;;;;4.50;1.50;;;;;;;;;;4981394;28;20043;-81
2022/09/17 00:49:13;;;;;;;5.22;1.40;;;;;;;;;;4991711;28;20045;-80
2022/09/17 00:51:42;;;;;;;6.45;1.60;;;;;;;;;;4980671;28;20033;-81
2022/09/17 00:54:09;;;;;;;3.88;1.50;;;;;;;;;;4991602;28;20034;-80
2022/09/17 00:56:38;;;;;;;4.18;1.40;;;;;;;;;;4975961;28;20493;-80
2022/09/17 00:59:03;;;;;;;4.15;1.20;;;;;;;;;;4980649;28;20061;-81
2022/09/17 01:01:30;;;;;;;6.53;1.67;;;;;;;;;;4982986;28;20493;-80
2022/09/17 01:03:55;;;;;;;9.90;1.83;;;;;;;;;;4977408;28;20049;-80
2022/09/17 01:06:41;;;;;;;7.50;1.75;;;;;;;;;;4979997;28;20509;-80
2022/09/17 01:09:27;;;;;;;6.32;1.92;;;;;;;;;;4971859;28;20052;-80
2022/09/17 01:12:19;;;;;;;7.47;1.75;;;;;;;;;;5004268;28;20096;-80
2022/09/17 01:15:01;;;;;;;6.65;1.95;;;;;;;;;;4985288;28;20026;-81
2022/09/17 01:17:38;;;;;;;10.85;1.83;;;;;;;;;;5003277;28;20065;-80
2022/09/17 01:20:06;;;;;;;7.15;2.03;;;;;;;;;;4998080;28;20177;-81
2022/09/17 01:22:53;;;;;;;5.95;1.85;;;;;;;;;;4986449;28;20045;-80
2022/09/17 01:25:23;;;;;;;4.85;1.60;;;;;;;;;;4952936;28;20069;-79
2022/09/17 01:28:04;;;;;;;6.18;1.80;;;;;;;;;;4969992;28;20034;-80
2022/09/17 01:30:42;;;;;;;5.90;1.55;;;;;;;;;;5002950;28;20029;-80
2022/09/17 01:33:20;;;;;;;6.82;1.70;;;;;;;;;;4976639;28;20091;-79
2022/09/17 01:36:00;;;;;;;6.57;1.45;;;;;;;;;;4973216;28;20050;-80
2022/09/17 01:38:33;;;;;;;5.38;1.70;;;;;;;;;;5000567;28;20049;-80
2022/09/17 01:41:06;;;;;;;5.60;1.70;;;;;;;;;;4992341;28;20041;-81
2022/09/17 01:43:54;;;;;;;7.85;1.95;;;;;;;;;;5001482;28;20405;-80
2022/09/17 01:46:26;;;;;;;5.68;1.27;;;;;;;;;;4992263;28;20488;-80
2022/09/17 01:48:57;;;;;;;9.15;1.70;;;;;;;;;;4993743;28;20030;-80
2022/09/17 01:51:26;;;;;;;7.05;1.60;;;;;;;;;;4980782;28;20037;-80
2022/09/17 01:53:57;;;;;;;5.72;1.75;;;;;;;;;;4988933;28;20113;-80
2022/09/17 01:56:32;;;;;;;6.88;1.70;;;;;;;;;;4977236;28;20116;-80
2022/09/17 01:59:06;;;;;;;5.43;1.55;;;;;;;;;;4985218;28;20573;-80
2022/09/17 02:01:33;;;;;;;7.63;2.08;;;;;;;;;;4992682;28;20038;-80
2022/09/17 02:04:08;;;;;;;5.00;1.75;;;;;;;;;;4973186;28;20376;-80
2022/09/17 02:06:37;;;;;;;5.53;1.35;;;;;;;;;;4992605;28;20053;-80
2022/09/17 02:09:07;;;;;;;5.40;1.65;;;;;;;;;;4984771;28;20039;-80
2022/09/17 02:11:36;;;;;;;4.65;1.65;;;;;;;;;;4988540;28;20533;-80
2022/09/17 02:14:22;;;;;;;7.75;2.00;;;;;;;;;;4979262;28;20061;-80
2022/09/17 02:16:51;;;;;;;8.23;2.30;;;;;;;;;;4984119;28;20030;-80
2022/09/17 02:19:37;;;;;;;7.55;2.17;;;;;;;;;;4994229;28;20092;-81
2022/09/17 02:22:05;;;;;;;7.00;1.98;;;;;;;;;;4975023;28;20034;-80
2022/09/17 02:24:35;;;;;;;7.13;1.92;;;;;;;;;;4982344;28;20153;-80
2022/09/17 02:27:08;;;;;;;6.55;2.10;;;;;;;;;;4981548;28;20038;-80
2022/09/17 02:29:43;;;;;;;5.15;1.70;;;;;;;;;;4970796;28;20042;-81
2022/09/17 02:32:09;;;;;;;6.63;1.83;;;;;;;;;;4991074;28;20050;-80
2022/09/17 02:34:35;;;;;;;10.90;2.33;;;;;;;;;;4974915;28;20038;-80
2022/09/17 02:37:02;;;;;;;6.28;1.75;;;;;;;;;;4976743;28;20041;-79
2022/09/17 02:39:27;;;;;;;11.90;2.20;;;;;;;;;;4973482;28;20069;-79
2022/09/17 02:42:04;;;;;;;6.50;1.90;;;;;;;;;;4969780;28;20076;-81
2022/09/17 02:44:40;;;;;;;6.30;1.85;;;;;;;;;;4988727;28;20038;-80
2022/09/17 02:47:14;;;;;;;9.93;1.95;;;;;;;;;;4990969;28;20400;-82
2022/09/17 02:49:42;;;;;;;6.15;1.98;;;;;;;;;;4991787;28;20026;-80
2022/09/17 02:52:37;;;;;;;6.63;1.88;;;;;;;;;;4998983;28;20109;-80
2022/09/17 02:55:19;;;;;;;5.93;1.83;;;;;;;;;;4938852;28;20443;-81
2022/09/17 02:57:59;;;;;;;6.80;2.03;;;;;;;;;;4973336;28;20072;-80
2022/09/17 03:00:27;;;;;;;9.02;1.48;;;;;;;;;;4975451;28;20045;-80
2022/09/17 03:02:56;;;;;;;8.82;1.90;;;;;;;;;;4974369;28;20042;-80
2022/09/17 03:05:22;;;;;;;8.75;2.03;;;;;;;;;;5008681;28;20513;-81
2022/09/17 03:07:49;;;;;;;14.75;2.47;;;;;;;;;;4991979;28;20505;-80
2022/09/17 03:10:15;;;;;;;6.60;1.98;;;;;;;;;;4994385;28;20116;-81
2022/09/17 03:12:40;;;;;;;8.55;1.98;;;;;;;;;;4995900;28;20109;-81
2022/09/17 03:15:07;;;;;;;10.18;2.03;;;;;;;;;;4977779;28;20041;-80
2022/09/17 03:17:32;;;;;;;5.30;1.70;;;;;;;;;;4960081;28;20037;-80
2022/09/17 03:19:57;;;;;;;7.32;1.85;;;;;;;;;;4972787;28;20041;-80
2022/09/17 03:22:23;;;;;;;9.20;1.85;;;;;;;;;;4985305;28;20029;-80
2022/09/17 03:24:49;;;;;;;5.20;1.50;;;;;;;;;;4977473;28;20037;-81
2022/09/17 03:27:14;;;;;;;7.95;1.50;;;;;;;;;;4988888;28;20034;-80
2022/09/17 03:29:42;;;;;;;7.97;1.52;;;;;;;;;;4983349;28;20401;-81
2022/09/17 03:32:08;;;;;;;7.88;1.65;;;;;;;;;;4978774;28;20478;-81
2022/09/17 03:34:33;;;;;;;6.65;1.63;;;;;;;;;;4974514;28;20044;-81
2022/09/17 03:36:59;;;;;;;7.00;1.52;;;;;;;;;;4990956;28;20029;-81
2022/09/17 03:39:24;;;;;;;8.70;1.77;;;;;;;;;;4958992;28;20038;-80
2022/09/17 03:41:50;;;;;;;7.63;2.00;;;;;;;;;;4992153;28;20067;-80
2022/09/17 03:44:17;;;;;;;7.65;1.77;;;;;;;;;;4977564;28;20040;-81
2022/09/17 03:46:42;;;;;;;9.52;1.60;;;;;;;;;;4974013;28;20031;-81
2022/09/17 03:49:08;;;;;;;7.13;1.50;;;;;;;;;;4982436;28;20084;-80
2022/09/17 03:51:33;;;;;;;8.55;1.85;;;;;;;;;;4974326;28;20054;-80
2022/09/17 03:53:59;;;;;;;5.15;1.55;;;;;;;;;;4974502;28;20034;-80
2022/09/17 03:56:25;;;;;;;9.05;1.65;;;;;;;;;;4969890;28;21739;-81
2022/09/17 03:58:50;;;;;;;5.70;1.50;;;;;;;;;;4976163;28;20038;-81
2022/09/17 04:01:18;;;;;;;6.63;1.60;;;;;;;;;;4992373;28;20370;-81
2022/09/17 04:03:44;;;;;;;;;;;;;;;;;;4977463;28;20493;-82
2022/09/17 04:06:10;;;;;;;6.25;1.40;;;;;;;;;;4991483;28;19924;-81
2022/09/17 04:08:36;;;;;;;9.35;1.95;;;;;;;;;;4996119;28;20101;-80
2022/09/17 04:11:01;;;;;;;8.35;1.60;;;;;;;;;;4980106;28;20172;-82
2022/09/17 04:13:27;;;;;;;6.50;1.67;;;;;;;;;;4973779;28;20046;-81
2022/09/17 04:15:52;;;;;;;8.30;1.77;;;;;;;;;;4975417;28;20033;-82
2022/09/17 04:18:20;;;;;;;6.40;1.45;;;;;;;;;;4983303;28;20042;-81
2022/09/17 04:20:46;;;;;;;5.15;1.23;;;;;;;;;;4989273;28;20034;-80
2022/09/17 04:23:12;;;;;;;11.57;1.70;;;;;;;;;;4977411;28;20052;-80
2022/09/17 04:25:38;;;;;;;7.13;1.92;;;;;;;;;;4977090;28;20046;-80
2022/09/17 04:28:03;;;;;;;6.28;1.60;;;;;;;;;;4985165;28;20026;-79
2022/09/17 04:30:28;;;;;;;8.10;1.65;;;;;;;;;;4983736;28;20033;-80
2022/09/17 04:32:54;;;;;;;6.32;1.58;;;;;;;;;;4981227;28;20034;-81
2022/09/17 04:35:22;;;;;;;11.88;2.80;;;;;;;;;;4981838;28;20041;-79
2022/09/17 04:38:05;;;;;;;;;;;;;;;;;;4996094;28;20041;-80
2022/09/17 04:40:31;;;;;;;9.95;1.60;;;;;;;;;;4977194;28;20059;-80
2022/09/17 04:43:02;;;;;;;7.20;1.48;;;;;;;;;;4979687;28;20121;-80
2022/09/17 04:45:28;;;;;;;8.45;1.88;;;;;;;;;;4977360;28;20038;-80
2022/09/17 04:47:53;;;;;;;4.93;1.50;;;;;;;;;;4980941;28;20108;-81
2022/09/17 04:50:20;;;;;;;7.50;1.77;;;;;;;;;;4981921;28;20461;-80
2022/09/17 04:52:45;;;;;;;7.10;1.50;;;;;;;;;;4980689;28;20496;-80
2022/09/17 04:55:11;;;;;;;11.27;1.45;;;;;;;;;;4978897;28;20057;-79
2022/09/17 04:57:37;;;;;;;6.93;1.98;;;;;;;;;;4981718;28;20034;-80
2022/09/17 05:00:05;;;;;;;7.25;2.10;;;;;;;;;;4993416;28;20038;-80
2022/09/17 05:02:32;;;;;;;11.02;2.17;;;;;;;;;;4976940;28;20041;-81
2022/09/17 05:04:57;;;;;;;5.70;1.30;;;;;;;;;;4990259;28;20038;-81
2022/09/17 05:07:23;;;;;;;10.38;2.45;;;;;;;;;;4983260;28;20391;-80
2022/09/17 05:09:48;;;;;;;6.32;1.67;;;;;;;;;;4995407;28;20477;-80
2022/09/17 05:12:13;;;;;;;10.75;1.85;;;;;;;;;;4971171;28;20591;-80
2022/09/17 05:14:39;;;;;;;7.53;1.77;;;;;;;;;;4975383;28;20382;-80
2022/09/17 05:17:04;;;;;;;7.57;1.80;;;;;;;;;;4977111;28;20034;-79
2022/09/17 05:19:30;;;;;;;8.23;2.25;;;;;;;;;;4976991;28;20042;-81
2022/09/17 05:21:58;;;;;;;6.07;1.63;;;;;;;;;;4977209;28;20048;-79
2022/09/17 05:24:23;;;;;;;6.00;1.75;;;;;;;;;;4982613;28;20045;-80
2022/09/17 05:26:49;;;;;;;5.45;1.67;;;;;;;;;;4994277;28;20034;-80
2022/09/17 05:29:15;;;;;;;5.43;1.95;;;;;;;;;;4996341;28;20048;-79
2022/09/17 05:31:43;;;;;;;6.03;1.63;;;;;;;;;;4976396;28;20512;-79
2022/09/17 05:34:08;;;;;;;;;;;;;;;;;;4979976;28;20045;-80
2022/09/17 05:36:33;;;;;;;7.80;2.10;;;;;;;;;;4975863;28;19923;-79
2022/09/17 05:38:59;;;;;;;7.07;2.45;;;;;;;;;;4980864;28;20084;-79
2022/09/17 05:41:24;;;;;;;10.88;2.05;;;;;;;;;;4972595;28;20041;-79
2022/09/17 05:43:50;;;;;;;6.78;1.85;;;;;;;;;;4975613;28;20033;-79
2022/09/17 05:46:15;;;;;;;11.60;1.98;;;;;;;;;;4980592;28;20062;-80
2022/09/17 05:48:40;;;;;;;7.10;2.22;;;;;;;;;;4993585;28;20450;-79
2022/09/17 05:51:05;;;;;;;10.10;2.67;;;;;;;;;;4976122;28;20080;-81
2022/09/17 05:53:31;;;;;;;11.82;2.65;;;;;;;;;;4979128;28;20552;-79
2022/09/17 05:55:57;;;;;;;6.07;2.50;;;;;;;;;;4991432;28;20036;-79
2022/09/17 05:58:23;;;;;;;11.15;2.20;;;;;;;;;;4995326;28;20065;-79
2022/09/17 06:00:49;;;;;;;8.50;2.53;;;;;;;;;;4979215;28;20053;-80
2022/09/17 06:03:16;;;;;;;8.82;2.83;;;;;;;;;;4977583;28;20042;-79
2022/09/17 06:05:42;;;;;;;11.32;2.63;;;;;;;;;;4993684;28;20216;-80
2022/09/17 06:08:08;;;;;;;11.88;2.80;;;;;;;;;;4977982;28;20048;-80
2022/09/17 06:10:37;;;;;;;11.30;2.50;;;;;;;;;;4975983;28;20547;-79
2022/09/17 06:13:03;;;;;;;10.68;2.75;;;;;;;;;;4974053;28;20085;-81
2022/09/17 06:15:29;;;;;;;12.18;3.92;;;;;;;;;;4985169;28;20034;-80
2022/09/17 06:17:54;;;;;;;12.40;2.65;;;;;;;;;;5006429;28;20516;-80
2022/09/17 06:20:19;;;;;;;13.35;2.90;;;;;;;;;;4995837;28;20046;-79
2022/09/17 06:22:45;;;;;;;15.48;3.10;;;;;;;;;;4976975;28;20049;-79
2022/09/17 06:25:13;;;;;;;16.35;2.80;;;;;;;;;;4989929;28;20045;-80
2022/09/17 06:27:38;;;;;;;15.27;2.90;;;;;;;;;;4990778;28;20037;-80
2022/09/17 06:30:05;;;;;;;13.68;3.17;;;;;;;;;;4988112;28;20497;-79
2022/09/17 06:32:33;;;;;;;15.00;3.25;;;;;;;;;;4970788;28;20076;-79
2022/09/17 06:34:58;;;;;;;11.88;2.85;;;;;;;;;;4974364;28;20110;-80
2022/09/17 06:37:28;;;;;;;14.65;3.05;;;;;;;;;;4979664;28;20128;-82
2022/09/17 06:40:25;;;;;;;13.27;2.53;;;;;;;;;;4975399;28;20108;-80
2022/09/17 06:42:58;;;;;;;11.13;2.70;;;;;;;;;;4956517;28;20109;-80
2022/09/17 06:45:24;;;;;;;12.20;2.42;;;;;;;;;;4980007;28;20041;-81
2022/09/17 06:47:52;;;;;;;11.13;2.35;;;;;;;;;;4968002;28;20040;-84
2022/09/17 06:50:18;;;;;;;13.02;2.40;;;;;;;;;;4985453;28;20042;-85
2022/09/17 06:52:48;;;;;;;10.85;2.53;;;;;;;;;;4999389;28;20104;-84
2022/09/17 06:55:15;;;;;;;13.93;2.70;;;;;;;;;;4973679;28;20046;-83
2022/09/17 06:57:41;;;;;;;;;;;;;;;;;;4965400;28;20049;-84
2022/09/17 07:00:08;;;;;;;18.90;2.50;;;;;;;;;;5014406;28;19960;-85
2022/09/17 07:02:33;;;;;;;10.80;1.77;;;;;;;;;;4973011;28;20093;-85
2022/09/17 07:04:59;;;;;;;8.90;2.08;;;;;;;;;;4993054;28;20041;-84
2022/09/17 07:07:27;;;;;;;11.90;2.28;;;;;;;;;;4969497;28;20813;-85
2022/09/17 07:09:53;;;;;;;11.65;2.00;;;;;;;;;;4976839;28;20036;-85
2022/09/17 07:12:19;;;;;;;15.63;2.30;;;;;;;;;;4990680;28;20489;-84
2022/09/17 07:14:46;;;;;;;9.82;1.90;;;;;;;;;;4988034;28;20041;-85
2022/09/17 07:17:15;;;;;;;8.63;1.90;;;;;;;;;;4975712;28;20481;-85
2022/09/17 07:19:46;;;;;;;9.90;2.20;;;;;;;;;;4963378;28;20289;-86
2022/09/17 07:22:12;;;;;;;11.43;1.95;;;;;;;;;;4974591;28;20041;-85
2022/09/17 07:24:38;;;;;;;9.93;1.70;;;;;;;;;;4988608;28;20116;-86
2022/09/17 07:27:04;;;;;;;10.73;2.10;;;;;;;;;;4972248;28;20524;-85
2022/09/17 07:29:30;;;;;;;11.25;1.95;;;;;;;;;;4992372;28;20061;-87
2022/09/17 07:31:58;;;;;;;7.85;1.60;;;;;;;;;;4990618;28;20548;-86
2022/09/17 07:34:23;;;;;;;;;;;;;;;;;;4978316;28;20515;-85
2022/09/17 07:36:52;;;;;;;14.25;1.75;;;;;;;;;;5000791;28;19913;-86
2022/09/17 07:39:17;;;;;;;11.43;1.75;;;;;;;;;;4965426;28;20041;-85
2022/09/17 07:41:42;;;;;;;9.02;1.70;;;;;;;;;;4983103;28;20464;-84
2022/09/17 07:44:11;;;;;;;8.27;1.63;;;;;;;;;;4981740;28;20041;-85
2022/09/17 07:46:36;;;;;;;9.05;1.70;;;;;;;;;;4973945;28;20037;-84
2022/09/17 07:49:04;;;;;;;10.98;1.73;;;;;;;;;;4971976;28;20033;-85
2022/09/17 07:51:33;;;;;;;11.85;1.77;;;;;;;;;;4981228;28;20038;-85
2022/09/17 07:53:58;;;;;;;10.65;2.13;;;;;;;;;;4967129;28;20037;-85
2022/09/17 07:56:25;;;;;;;9.23;1.65;;;;;;;;;;4980526;28;20029;-85
2022/09/17 07:58:56;;;;;;;9.43;1.83;;;;;;;;;;4987064;28;20498;-85
2022/09/17 08:01:22;;;;;;;10.60;2.20;;;;;;;;;;4990474;28;20042;-85
2022/09/17 08:03:52;;;;;;;12.45;1.73;;;;;;;;;;4990757;28;20091;-85
2022/09/17 08:06:27;;;;;;;9.63;1.70;;;;;;;;;;4972593;28;20041;-84
2022/09/17 08:08:57;;;;;;;9.23;1.65;;;;;;;;;;4974499;28;20042;-84
2022/09/17 08:11:27;;;;;;;9.45;1.65;;;;;;;;;;4974319;28;20060;-83
2022/09/17 08:13:53;;;;;;;8.45;1.77;;;;;;;;;;4981203;28;20758;-83
2022/09/17 08:16:20;;;;;;;9.23;1.67;;;;;;;;;;4980470;28;20432;-82
2022/09/17 08:18:46;;;;;;;8.20;1.97;;;;;;;;;;4979091;28;20038;-83
2022/09/17 08:21:14;;;;;;;11.50;1.67;;;;;;;;;;4972347;28;20042;-82
2022/09/17 08:23:43;;;;;;;6.55;1.30;;;;;;;;;;4993007;28;20405;-83
2022/09/17 08:26:21;;;;;;;8.40;1.70;;;;;;;;;;4967753;28;20100;-82
2022/09/17 08:28:54;;;;;;;8.40;1.70;;;;;;;;;;4979803;28;20088;-82
2022/09/17 08:31:20;;;;;;;7.47;1.45;;;;;;;;;;4982993;28;20173;-83
2022/09/17 08:33:46;;;;;;;6.53;1.70;;;;;;;;;;4972156;28;20037;-84
2022/09/17 08:36:21;;;;;;;10.52;1.88;;;;;;;;;;4964982;28;20040;-82
2022/09/17 08:38:48;;;;;;;8.38;1.55;;;;;;;;;;4987118;28;20058;-82
2022/09/17 08:41:22;;;;;;;9.93;2.30;;;;;;;;;;4985896;28;20747;-82
2022/09/17 08:44:02;;;;;;;8.30;1.65;;;;;;;;;;4962122;28;20843;-85
2022/09/17 08:50:24;;;;;;;8.93;1.67;;;;;;;;;;4934075;28;20534;-83
2022/09/17 08:53:30;;;;;;;9.27;1.45;;;;;;;;;;4932739;28;20038;-83
2022/09/17 08:56:10;;;;;;;6.13;1.55;;;;;;;;;;4940147;28;20052;-85
2022/09/17 08:58:42;;;;;;;9.95;1.50;;;;;;;;;;4951768;28;20042;-86
2022/09/17 09:01:29;;;;;;;7.90;1.60;;;;;;;;;;4986792;28;20126;-85
2022/09/17 09:04:06;;;;;;;8.35;1.45;;;;;;;;;;4984241;28;20830;-84
2022/09/17 09:06:36;;;;;;;8.30;1.70;;;;;;;;;;4987373;28;20049;-85
2022/09/17 09:09:11;;;;;;;6.32;1.25;;;;;;;;;;4959233;28;20052;-84
2022/09/17 09:11:36;;;;;;;7.70;1.27;;;;;;;;;;4966093;28;20389;-87
2022/09/17 09:14:25;;;;;;;8.45;1.33;;;;;;;;;;4960768;28;20030;-87
2022/09/17 09:16:51;;;;;;;7.53;1.20;;;;;;;;;;4974606;28;20513;-88
2022/09/17 09:19:25;;;;;;;6.40;1.48;;;;;;;;;;4986548;28;20100;-87
2022/09/17 09:22:02;;;;;;;10.05;1.60;;;;;;;;;;4970117;28;20034;-84
2022/09/17 09:25:03;;;;;;;7.68;1.55;;;;;;;;;;4999727;28;20041;-83
2022/09/17 09:27:35;;;;;;;7.35;1.55;;;;;;;;;;4984673;28;20038;-84
2022/09/17 09:30:09;;;;;;;6.00;1.00;;;;;;;;;;4991548;28;20393;-84
2022/09/17 09:32:53;;;;;;;8.68;1.25;;;;;;;;;;4978054;28;20038;-84
2022/09/17 09:35:33;;;;;;;8.88;1.33;;;;;;;;;;5009974;28;20061;-83
2022/09/17 09:38:03;;;;;;;5.28;1.13;;;;;;;;;;4978453;28;20493;-83
2022/09/17 09:40:36;;;;;;;7.53;1.38;;;;;;;;;;4977298;28;20069;-83
2022/09/17 09:43:11;;;;;;;11.88;1.63;;;;;;;;;;4978103;28;20041;-83
2022/09/17 09:46:23;;;;;;;6.03;1.70;;;;;;;;;;4980695;28;20481;-83
2022/09/17 09:48:55;;;;;;;5.28;1.08;;;;;;;;;;4941465;28;20481;-84
2022/09/17 09:51:43;;;;;;;6.78;1.13;;;;;;;;;;4980395;28;20774;-82
2022/09/17 09:54:26;;;;;;;9.93;1.50;;;;;;;;;;4969795;28;20386;-85
2022/09/17 09:56:54;;;;;;;8.60;1.55;;;;;;;;;;4968605;28;20393;-84
2022/09/17 09:59:19;;;;;;;5.57;1.30;;;;;;;;;;5008325;28;20446;-83
2022/09/17 10:01:45;;;;;;;9.27;1.20;;;;;;;;;;4991246;28;20072;-84
2022/09/17 10:04:15;;;;;;;9.40;1.45;;;;;;;;;;4974740;28;20038;-83
2022/09/17 10:06:41;;;;;;;6.15;1.38;;;;;;;;;;4989804;28;20045;-84
2022/09/17 10:09:06;;;;;;;8.55;1.20;;;;;;;;;;4973456;28;20406;-84
2022/09/17 10:11:32;;;;;;;7.07;1.55;;;;;;;;;;4984363;28;20034;-84
2022/09/17 10:14:26;;;;;;;7.95;1.30;;;;;;;;;;4972046;28;20029;-85
2022/09/17 10:17:13;;;;;;;7.43;1.42;;;;;;;;;;4992438;28;20468;-84
2022/09/17 10:19:39;;;;;;;8.57;1.50;;;;;;;;;;4969481;28;20073;-87
2022/09/17 10:22:22;;;;;;;6.60;1.17;;;;;;;;;;4981361;28;20286;-84
2022/09/17 10:24:48;;;;;;;6.80;1.42;;;;;;;;;;4980145;28;20473;-84
2022/09/17 10:27:16;;;;;;;6.38;1.40;;;;;;;;;;4977103;28;20064;-84
2022/09/17 10:30:07;;;;;;;6.45;1.40;;;;;;;;;;4989004;28;20041;-84
2022/09/17 10:32:32;;;;;;;6.90;1.23;;;;;;;;;;4924419;28;20073;-85
2022/09/17 10:35:20;;;;;;;7.20;1.20;;;;;;;;;;4938244;28;20070;-85
2022/09/17 10:37:55;;;;;;;7.22;1.52;;;;;;;;;;4995901;28;20054;-90
2022/09/17 10:40:26;;;;;;;7.65;1.23;;;;;;;;;;4956297;28;20092;-88
2022/09/17 10:43:15;;;;;;;7.70;1.55;;;;;;;;;;4985666;28;20559;-89
2022/09/17 10:45:43;;;;;;;8.85;1.20;;;;;;;;;;5008875;28;20413;-89
2022/09/17 10:48:16;;;;;;;6.35;1.00;;;;;;;;;;4990024;28;20449;-87
2022/09/17 10:51:17;;;;;;;;;;;;;;;;;;;;;
2022/09/17 11:01:42;;;;;;;7.15;1.10;;;;;;;;;;4770004;29;20047;-88
2022/09/17 11:07:53;;;;;;;6.97;1.60;;;;;;;;;;4754473;29;20059;-90
2022/09/17 11:10:48;;;;;;;5.38;0.80;;;;;;;;;;4733273;29;20059;-87
2022/09/17 11:13:57;;;;;;;5.78;1.00;;;;;;;;;;4790716;29;20065;-88
2022/09/17 11:16:43;;;;;;;5.80;1.20;;;;;;;;;;4755040;29;20671;-89
2022/09/17 11:19:30;;;;;;;5.38;0.88;;;;;;;;;;4830393;29;20069;-86
2022/09/17 11:22:39;;;;;;;7.82;1.35;;;;;;;;;;4802144;29;20082;-87
2022/09/17 11:25:37;;;;;;;5.47;0.90;;;;;;;;;;4801448;29;20528;-86
2022/09/17 11:28:40;;;;;;;5.90;0.98;;;;;;;;;;4813436;29;20045;-88
2022/09/17 11:31:50;;;;;;;;;;;;;;;;;;;;;
2022/09/17 11:34:49;;;;;;;4.97;1.10;;;;;;;;;;4872690;29;20552;-86
2022/09/17 11:37:42;;;;;;;3.85;0.80;;;;;;;;;;4879241;28;20066;-85
2022/09/17 11:40:22;;;;;;;4.65;0.95;;;;;;;;;;4898202;28;20066;-86
2022/09/17 11:43:30;;;;;;;5.28;1.17;;;;;;;;;;4896365;29;20417;-86
2022/09/17 11:46:42;;;;;;;5.68;0.80;;;;;;;;;;4861193;29;20630;-87
2022/09/17 11:49:40;;;;;;;4.50;0.90;;;;;;;;;;4828961;29;21652;-86
2022/09/17 11:52:16;;;;;;;5.65;1.00;;;;;;;;;;4926072;28;20031;-88
2022/09/17 11:55:20;;;;;;;5.20;0.90;;;;;;;;;;4917367;29;20044;-87
2022/09/17 11:57:48;;;;;;;6.53;1.58;;;;;;;;;;4888613;28;20090;-87
2022/09/17 12:00:13;;;;;;;;;;;;;;;;;;4960810;28;20042;-87
2022/09/17 12:02:47;;;;;;;5.93;0.90;;;;;;;;;;4989478;28;19980;-86
2022/09/17 12:05:19;;;;;;;5.60;0.77;;;;;;;;;;4973593;28;20046;-88
2022/09/17 12:08:03;;;;;;;5.05;0.80;;;;;;;;;;4991794;28;20042;-86
2022/09/17 12:11:06;;;;;;;4.57;0.70;;;;;;;;;;4997108;28;20087;-88
2022/09/17 12:14:03;;;;;;;6.78;1.27;;;;;;;;;;4991930;28;20092;-87
2022/09/17 12:16:41;;;;;;;7.00;1.00;;;;;;;;;;4948269;28;20533;-87
2022/09/17 12:19:32;;;;;;;6.40;1.35;;;;;;;;;;4989047;28;20145;-89
2022/09/17 12:22:01;;;;;;;4.38;0.70;;;;;;;;;;5004255;28;20076;-87
2022/09/17 12:24:30;;;;;;;3.45;0.80;;;;;;;;;;4995325;28;20045;-86
2022/09/17 12:27:11;;;;;;;5.13;0.90;;;;;;;;;;4990815;28;20073;-89
2022/09/17 12:29:48;;;;;;;5.15;0.85;;;;;;;;;;4989353;28;20042;-86
2022/09/17 12:32:31;;;;;;;4.28;0.80;;;;;;;;;;5006920;28;20525;-88
2022/09/17 12:35:06;;;;;;;4.97;1.00;;;;;;;;;;4996311;28;20157;-86
2022/09/17 12:38:02;;;;;;;3.72;0.88;;;;;;;;;;4977246;28;20557;-88
2022/09/17 12:40:52;;;;;;;3.63;0.75;;;;;;;;;;4981262;28;20069;-86
2022/09/17 12:43:29;;;;;;;3.97;0.88;;;;;;;;;;4987441;28;20037;-87
2022/09/17 12:46:07;;;;;;;7.03;1.33;;;;;;;;;;5004427;28;20523;-88
2022/09/17 12:48:53;;;;;;;3.90;0.93;;;;;;;;;;5009188;28;20035;-86
2022/09/17 12:51:57;;;;;;;4.13;0.77;;;;;;;;;;4961244;28;20038;-86
2022/09/17 12:54:38;;;;;;;10.80;2.15;;;;;;;;;;4936943;28;20043;-86
2022/09/17 12:57:13;;;;;;;4.80;1.13;;;;;;;;;;4952949;28;20027;-88
2022/09/17 12:59:49;;;;;;;5.15;1.13;;;;;;;;;;4936173;28;20039;-87
2022/09/17 13:02:25;;;;;;;3.75;0.98;;;;;;;;;;4951592;28;20050;-87
2022/09/17 13:05:21;;;;;;;4.78;0.85;;;;;;;;;;4941349;28;20031;-87
2022/09/17 13:07:56;;;;;;;4.15;0.80;;;;;;;;;;4891860;28;20049;-86
2022/09/17 13:10:56;;;;;;;4.50;0.65;;;;;;;;;;4925531;28;20039;-87
2022/09/17 13:14:20;;;;;;;;;;;;;;;;;;;;;
2022/09/17 13:16:53;;;;;;;3.70;0.50;;;;;;;;;;4856799;29;20462;-85
2022/09/17 13:19:40;;;;;;;4.88;0.80;;;;;;;;;;4867105;29;20085;-85
2022/09/17 13:22:12;;;;;;;3.15;0.45;;;;;;;;;;4873209;29;20036;-85
2022/09/17 13:24:39;;;;;;;3.05;0.80;;;;;;;;;;4867000;29;20052;-84
2022/09/17 13:27:05;;;;;;;3.40;0.50;;;;;;;;;;4870953;29;20033;-84
2022/09/17 13:29:42;;;;;;;6.95;0.82;;;;;;;;;;4891608;29;20191;-85
2022/09/17 13:32:10;;;;;;;2.88;0.73;;;;;;;;;;4891560;29;20051;-84
2022/09/17 13:34:37;;;;;;;3.35;0.68;;;;;;;;;;4893845;29;20050;-87
2022/09/17 13:37:03;;;;;;;4.00;0.60;;;;;;;;;;4887395;29;20044;-85
2022/09/17 13:39:39;;;;;;;4.60;0.73;;;;;;;;;;4887175;29;20055;-85
2022/09/17 13:42:15;;;;;;;4.72;0.90;;;;;;;;;;4880104;29;20111;-85
2022/09/17 13:44:48;;;;;;;2.50;0.65;;;;;;;;;;4894074;29;20041;-86
2022/09/17 13:47:26;;;;;;;3.00;0.57;;;;;;;;;;4899039;29;20040;-88
2022/09/17 13:49:57;;;;;;;3.47;0.50;;;;;;;;;;4877671;29;20068;-88
2022/09/17 13:52:44;;;;;;;5.88;0.65;;;;;;;;;;4881786;29;20569;-86
2022/09/17 13:55:28;;;;;;;;;;;;;;;;;;4988097;28;20041;-84
2022/09/17 13:57:57;;;;;;;5.07;0.95;;;;;;;;;;4987068;28;20289;-84
2022/09/17 14:01:01;;;;;;;2.65;0.60;;;;;;;;;;4982264;28;20525;-85
2022/09/17 14:03:45;;;;;;;4.72;0.85;;;;;;;;;;4983061;28;20031;-85
2022/09/17 14:06:14;;;;;;;6.22;0.80;;;;;;;;;;5003786;28;20042;-85
2022/09/17 14:08:42;;;;;;;4.22;0.77;;;;;;;;;;5002767;28;20037;-86
2022/09/17 14:11:28;;;;;;;4.20;0.60;;;;;;;;;;5012762;28;20083;-86
2022/09/17 14:14:03;;;;;;;5.25;0.95;;;;;;;;;;4993093;28;20088;-88
2022/09/17 14:16:39;;;;;;;6.28;0.95;;;;;;;;;;4976673;28;20113;-87
2022/09/17 14:19:23;;;;;;;6.10;1.00;;;;;;;;;;5007105;28;20049;-86
2022/09/17 14:22:00;;;;;;;4.63;1.10;;;;;;;;;;4974733;28;20041;-85
2022/09/17 14:24:41;;;;;;;4.70;0.88;;;;;;;;;;5007289;28;20103;-91
2022/09/17 14:27:25;;;;;;;4.25;0.90;;;;;;;;;;4973600;28;20061;-85
2022/09/17 14:30:11;;;;;;;6.50;1.10;;;;;;;;;;4979343;28;20042;-82
2022/09/17 14:32:50;;;;;;;4.45;1.10;;;;;;;;;;4992171;28;20515;-81
2022/09/17 14:35:25;;;;;;;5.63;0.80;;;;;;;;;;4954980;28;20061;-81
2022/09/17 14:37:55;;;;;;;6.43;0.85;;;;;;;;;;4992867;28;20045;-81
2022/09/17 14:40:22;;;;;;;5.90;0.75;;;;;;;;;;4995661;28;20129;-81
2022/09/17 14:42:51;;;;;;;4.00;0.70;;;;;;;;;;4975151;28;20041;-83
2022/09/17 14:45:21;;;;;;;8.48;1.02;;;;;;;;;;4973270;28;20081;-84
2022/09/17 14:47:47;;;;;;;6.10;0.95;;;;;;;;;;4986501;28;20034;-87
2022/09/17 14:50:23;;;;;;;2.35;0.50;;;;;;;;;;4984640;28;20436;-85
2022/09/17 14:52:50;;;;;;;1.83;0.40;;;;;;;;;;4980233;28;20420;-84
2022/09/17 14:55:22;;;;;;;3.95;0.40;;;;;;;;;;4971883;28;20050;-86
2022/09/17 14:57:53;;;;;;;3.72;0.60;;;;;;;;;;4988961;28;20034;-85
2022/09/17 15:00:33;;;;;;;2.53;0.50;;;;;;;;;;4967579;28;20257;-87
2022/09/17 15:02:58;;;;;;;2.47;0.30;;;;;;;;;;5002723;28;20117;-87
2022/09/17 15:05:37;;;;;;;3.78;0.40;;;;;;;;;;4970610;28;20172;-84
2022/09/17 15:08:08;;;;;;;2.30;0.57;;;;;;;;;;4974717;28;20049;-86
2022/09/17 15:10:53;;;;;;;3.08;0.52;;;;;;;;;;4983912;28;20112;-84
2022/09/17 15:13:26;;;;;;;3.58;0.50;;;;;;;;;;4988610;28;20565;-85
2022/09/17 15:16:00;;;;;;;1.95;0.45;;;;;;;;;;4977135;28;20042;-87
2022/09/17 15:18:34;;;;;;;2.42;0.30;;;;;;;;;;4986541;28;20519;-89
2022/09/17 15:21:00;;;;;;;1.27;0.40;;;;;;;;;;4985082;28;20485;-86
2022/09/17 15:23:29;;;;;;;2.30;0.57;;;;;;;;;;4960384;28;20052;-82
2022/09/17 15:25:56;;;;;;;5.70;0.50;;;;;;;;;;4989725;28;20508;-83
2022/09/17 15:28:34;;;;;;;1.35;0.30;;;;;;;;;;4982452;28;20046;-81
2022/09/17 15:31:05;;;;;;;2.42;0.47;;;;;;;;;;4972654;28;20041;-84
2022/09/17 15:33:46;;;;;;;2.58;0.30;;;;;;;;;;4954907;28;20053;-82
2022/09/17 15:36:22;;;;;;;3.38;0.30;;;;;;;;;;4934706;28;20461;-87
2022/09/17 15:38:55;;;;;;;0.55;0.20;;;;;;;;;;4981076;28;20040;-84